FK-0036 weather

Public forecast

Using degrees Celsius for public forecast. Weather courtesy of forecast.io.

Closest aviation weather report (METAR) to Pebble Island Beach Airstrip

Closest report is Mount Pleasant Airport, 51.8 nm (96.0 km) SE. Retrieved 2020/08/14 22:50 UTC (22 minutes ago):

EGYP 142250Z 34009KT CAVOK 01/M04 Q0998

Closest aviation forecast (TAF) to Pebble Island Beach Airstrip

Closest forecast is Mount Pleasant Airport, 51.8 nm (96.0 km) SE. Retrieved 2020/08/14 21:37 UTC (2 hours ago):

TAF EGYP 141925Z 1421/1515 31008KT 9999 FEW030 PROB40 TEMPO 1509/1515 4000 -SHSN SCT008 PROB30 TEMPO 1510/1515 2000 SHSN SCT004 BECMG 1511/1515 35015KT